Time;durP1;ratioP1;P1;durP2;ratioP2;P2;SDS_P1;SDS_P2;PMS_P1;PMS_P2;Temp;Humidity;BMP_temperature;BMP_pressure;BME280_temperature;BME280_humidity;BME280_pressure;Samples;Min_cycle;Max_cycle;Signal;HPM_P1;HPM_P2
2023/09/09 00:01:15;;;;;;;8.93;8.13;;;24.10;99.90;;;;;;5063973;28;20334;-65
2023/09/09 00:03:43;;;;;;;8.90;8.10;;;24.10;99.90;;;;;;5080492;28;20608;-65
2023/09/09 00:06:10;;;;;;;10.15;7.55;;;24.00;99.90;;;;;;5084536;28;20203;-65
2023/09/09 00:08:39;;;;;;;8.32;7.45;;;24.00;99.90;;;;;;5088926;28;20305;-65
2023/09/09 00:11:06;;;;;;;9.00;8.07;;;24.00;99.90;;;;;;5105067;28;20325;-65
2023/09/09 00:13:33;;;;;;;8.80;7.80;;;24.00;99.90;;;;;;5105191;28;20259;-65
2023/09/09 00:16:00;;;;;;;7.97;7.28;;;23.90;99.90;;;;;;5081006;28;20291;-65
2023/09/09 00:18:27;;;;;;;9.23;7.85;;;23.90;99.90;;;;;;5067392;28;20217;-65
2023/09/09 00:20:55;;;;;;;8.68;7.95;;;23.80;99.90;;;;;;5072809;28;20325;-65
2023/09/09 00:23:22;;;;;;;8.30;7.50;;;23.80;99.90;;;;;;5088183;28;20210;-65
2023/09/09 00:25:51;;;;;;;9.00;8.10;;;23.80;99.90;;;;;;5088064;28;20215;-65
2023/09/09 00:28:20;;;;;;;8.20;7.45;;;23.80;99.90;;;;;;5088545;28;20287;-65
2023/09/09 00:30:47;;;;;;;8.52;7.75;;;23.70;99.90;;;;;;5088140;28;20230;-65
2023/09/09 00:33:14;;;;;;;9.02;8.25;;;23.70;99.90;;;;;;5086583;28;20195;-65
2023/09/09 00:35:41;;;;;;;7.88;7.38;;;23.70;99.90;;;;;;5087462;28;20285;-65
2023/09/09 00:38:09;;;;;;;8.52;7.82;;;23.70;99.90;;;;;;5088829;28;20238;-65
2023/09/09 00:40:36;;;;;;;8.90;8.20;;;23.70;99.90;;;;;;5088229;28;20302;-65
2023/09/09 00:43:04;;;;;;;9.68;8.43;;;23.70;99.90;;;;;;5077064;28;20203;-65
2023/09/09 00:45:31;;;;;;;8.18;7.57;;;23.60;99.90;;;;;;5081489;28;20701;-65
2023/09/09 00:47:59;;;;;;;8.52;7.82;;;23.60;99.90;;;;;;5088096;28;20211;-65
2023/09/09 00:50:26;;;;;;;8.85;8.05;;;23.60;99.90;;;;;;5087491;28;20321;-65
2023/09/09 00:52:54;;;;;;;8.93;8.00;;;23.60;99.90;;;;;;5087650;28;20238;-65
2023/09/09 00:55:23;;;;;;;9.05;8.02;;;23.60;99.90;;;;;;5087399;28;20238;-65
2023/09/09 00:57:50;;;;;;;9.55;8.65;;;23.50;99.90;;;;;;5087667;28;20687;-65
2023/09/09 01:00:19;;;;;;;8.95;7.55;;;23.50;99.90;;;;;;5088024;28;20927;-65
2023/09/09 01:02:46;;;;;;;8.85;8.05;;;23.40;99.90;;;;;;5088581;28;20228;-65
2023/09/09 01:05:13;;;;;;;8.73;7.95;;;23.40;99.90;;;;;;5087796;28;20207;-65
2023/09/09 01:07:47;;;;;;;8.80;7.80;;;23.40;99.90;;;;;;5087933;28;20238;-65
2023/09/09 01:10:15;;;;;;;10.18;8.15;;;23.30;99.90;;;;;;5105975;28;20337;-65
2023/09/09 01:12:42;;;;;;;9.35;8.27;;;23.30;99.90;;;;;;5108224;28;20251;-65
2023/09/09 01:15:09;;;;;;;9.23;7.90;;;23.30;99.90;;;;;;5108136;28;20210;-65
2023/09/09 01:17:38;;;;;;;14.00;9.05;;;23.30;99.90;;;;;;5100369;28;20286;-65
2023/09/09 01:20:12;;;;;;;8.75;7.82;;;23.30;99.90;;;;;;5087205;28;20305;-65
2023/09/09 01:22:40;;;;;;;8.88;8.18;;;23.20;99.90;;;;;;5087618;28;20213;-65
2023/09/09 01:25:08;;;;;;;8.90;8.20;;;23.20;99.90;;;;;;5087194;28;20221;-65
2023/09/09 01:27:34;;;;;;;9.00;8.20;;;23.20;99.90;;;;;;5087632;28;20390;-65
2023/09/09 01:30:01;;;;;;;9.60;8.80;;;23.10;99.90;;;;;;5077478;28;20235;-65
2023/09/09 01:32:28;;;;;;;12.07;8.45;;;23.10;99.90;;;;;;5074857;28;20217;-66
2023/09/09 01:34:55;;;;;;;8.45;7.78;;;23.10;99.90;;;;;;5087484;28;20207;-65
2023/09/09 01:37:22;;;;;;;8.43;7.70;;;23.00;99.90;;;;;;5069115;28;20298;-65
2023/09/09 01:39:51;;;;;;;8.52;7.68;;;23.00;99.90;;;;;;5091290;28;20290;-65
2023/09/09 01:42:18;;;;;;;8.38;7.72;;;22.90;99.90;;;;;;5075484;28;20263;-65
2023/09/09 01:44:47;;;;;;;8.50;7.80;;;22.90;99.90;;;;;;5071541;28;20195;-65
2023/09/09 01:47:14;;;;;;;8.45;7.78;;;22.90;99.90;;;;;;5086874;28;20209;-65
2023/09/09 01:49:41;;;;;;;9.77;7.80;;;22.90;99.90;;;;;;5086932;28;20209;-65
2023/09/09 01:52:08;;;;;;;8.77;8.07;;;22.80;99.90;;;;;;5086595;28;20243;-65
2023/09/09 01:54:35;;;;;;;9.80;8.50;;;22.80;99.90;;;;;;5074677;28;20233;-66
2023/09/09 01:57:04;;;;;;;8.40;7.70;;;22.70;99.90;;;;;;5067215;28;20237;-65
2023/09/09 01:59:31;;;;;;;9.52;8.73;;;22.70;99.90;;;;;;5069608;28;20293;-66
2023/09/09 02:01:58;;;;;;;9.38;8.18;;;22.60;99.90;;;;;;5066661;28;20239;-66
2023/09/09 02:04:25;;;;;;;8.40;7.63;;;22.60;99.90;;;;;;5066987;28;20404;-65
2023/09/09 02:06:51;;;;;;;8.70;7.95;;;22.50;99.90;;;;;;5066958;28;20275;-65
2023/09/09 02:09:18;;;;;;;9.57;7.93;;;22.50;99.90;;;;;;5086774;28;20259;-65
2023/09/09 02:11:45;;;;;;;8.98;8.27;;;22.40;99.90;;;;;;5107406;28;20226;-65
2023/09/09 02:14:13;;;;;;;8.90;8.02;;;22.40;99.90;;;;;;5106647;28;20294;-65
2023/09/09 02:16:40;;;;;;;9.00;8.20;;;22.30;99.90;;;;;;5106785;28;20292;-65
2023/09/09 02:19:07;;;;;;;8.93;8.13;;;22.30;99.90;;;;;;5091268;28;20305;-65
2023/09/09 02:21:34;;;;;;;8.88;8.05;;;22.30;99.90;;;;;;5086132;28;20542;-65
2023/09/09 02:24:01;;;;;;;8.98;8.07;;;22.20;99.90;;;;;;5085518;28;20950;-65
2023/09/09 02:26:28;;;;;;;9.48;8.48;;;22.20;99.90;;;;;;5081071;28;20209;-65
2023/09/09 02:28:55;;;;;;;8.95;8.20;;;22.20;99.90;;;;;;5074493;28;20220;-65
2023/09/09 02:31:23;;;;;;;8.80;8.05;;;22.10;99.90;;;;;;5085853;28;20242;-65
2023/09/09 02:33:50;;;;;;;9.10;8.23;;;22.10;99.90;;;;;;5086069;28;20202;-65
2023/09/09 02:36:17;;;;;;;9.80;8.73;;;22.00;99.90;;;;;;5080505;28;20318;-65
2023/09/09 02:38:44;;;;;;;8.82;8.00;;;22.00;99.90;;;;;;5071323;28;20235;-65
2023/09/09 02:41:11;;;;;;;8.57;7.82;;;21.90;99.90;;;;;;5065796;28;20654;-65
2023/09/09 02:43:38;;;;;;;11.32;9.10;;;21.90;99.90;;;;;;5080958;28;20318;-66
2023/09/09 02:46:05;;;;;;;10.82;8.70;;;21.90;99.90;;;;;;5085828;28;20203;-66
2023/09/09 02:48:33;;;;;;;11.68;9.15;;;21.90;99.90;;;;;;5086114;28;20210;-66
2023/09/09 02:51:00;;;;;;;10.18;8.63;;;22.00;99.90;;;;;;5085642;28;20246;-66
2023/09/09 02:53:27;;;;;;;9.20;8.40;;;22.00;99.90;;;;;;5085913;28;20293;-66
2023/09/09 02:55:54;;;;;;;9.15;8.43;;;22.00;99.90;;;;;;5065458;28;20282;-66
2023/09/09 02:58:21;;;;;;;9.68;8.85;;;22.10;99.90;;;;;;5072997;28;20234;-66
2023/09/09 03:00:48;;;;;;;10.15;9.15;;;22.10;99.90;;;;;;5085217;28;20325;-66
2023/09/09 03:03:16;;;;;;;12.50;8.73;;;22.10;99.90;;;;;;5085370;28;20640;-66
2023/09/09 03:05:44;;;;;;;9.38;8.43;;;22.10;99.90;;;;;;5085750;28;20210;-66
2023/09/09 03:08:11;;;;;;;8.95;8.15;;;22.10;99.90;;;;;;5084568;28;20206;-66
2023/09/09 03:10:38;;;;;;;9.13;8.38;;;22.20;99.90;;;;;;5065471;28;20233;-66
2023/09/09 03:13:05;;;;;;;9.68;8.77;;;22.20;99.90;;;;;;5065543;28;20212;-66
2023/09/09 03:15:32;;;;;;;10.23;9.23;;;22.20;99.90;;;;;;5065228;28;20303;-66
2023/09/09 03:17:58;;;;;;;9.30;8.50;;;22.20;99.90;;;;;;5065053;28;20216;-65
2023/09/09 03:20:25;;;;;;;9.70;8.80;;;22.20;99.90;;;;;;5066460;28;20203;-65
2023/09/09 03:22:54;;;;;;;10.27;9.40;;;22.20;99.90;;;;;;5079978;28;20295;-65
2023/09/09 03:25:21;;;;;;;11.93;9.27;;;22.10;99.90;;;;;;5065148;28;20304;-65
2023/09/09 03:27:47;;;;;;;10.93;9.07;;;22.10;99.90;;;;;;5068350;28;20226;-65
2023/09/09 03:30:14;;;;;;;10.98;8.95;;;22.10;99.90;;;;;;5084801;28;20206;-65
2023/09/09 03:32:41;;;;;;;10.98;10.00;;;22.10;99.90;;;;;;5085165;28;20281;-64
2023/09/09 03:35:09;;;;;;;9.20;8.30;;;22.10;99.90;;;;;;5085420;28;20325;-65
2023/09/09 03:37:36;;;;;;;9.55;8.65;;;22.00;99.90;;;;;;5066782;28;20205;-64
2023/09/09 03:40:06;;;;;;;10.32;8.70;;;22.00;99.90;;;;;;5077144;28;20290;-64
2023/09/09 03:42:33;;;;;;;14.43;9.50;;;22.00;99.90;;;;;;5065079;28;20585;-65
2023/09/09 03:45:00;;;;;;;9.90;9.10;;;22.00;99.90;;;;;;5064900;28;20215;-65
2023/09/09 03:47:27;;;;;;;10.02;9.05;;;22.00;99.90;;;;;;5070398;28;20286;-64
2023/09/09 03:49:54;;;;;;;10.05;9.07;;;21.90;99.90;;;;;;5081486;28;20312;-64
2023/09/09 03:52:21;;;;;;;9.48;8.70;;;21.90;99.90;;;;;;5063886;28;20223;-64
2023/09/09 03:54:48;;;;;;;10.50;9.55;;;21.90;99.90;;;;;;5064637;28;20229;-65
2023/09/09 03:57:17;;;;;;;10.30;9.50;;;21.80;99.90;;;;;;5064978;28;20214;-64
2023/09/09 03:59:44;;;;;;;10.35;9.50;;;21.70;99.90;;;;;;5064439;28;20213;-65
2023/09/09 04:02:11;;;;;;;10.60;9.75;;;21.70;99.90;;;;;;5064821;28;20310;-65
2023/09/09 04:04:38;;;;;;;10.68;9.73;;;21.70;99.90;;;;;;5064974;28;20204;-65
2023/09/09 04:07:05;;;;;;;10.20;9.20;;;21.70;99.90;;;;;;5065329;28;20214;-66
2023/09/09 04:09:40;;;;;;;9.68;8.73;;;21.70;99.90;;;;;;5076772;28;20215;-65
2023/09/09 04:12:08;;;;;;;10.50;9.45;;;21.70;99.90;;;;;;5084762;28;20214;-65
2023/09/09 04:14:38;;;;;;;9.65;8.85;;;21.60;99.90;;;;;;5084053;28;20964;-65
2023/09/09 04:17:05;;;;;;;11.10;9.38;;;21.60;99.90;;;;;;5084585;28;20211;-65
2023/09/09 04:19:32;;;;;;;10.18;9.25;;;21.60;99.90;;;;;;5084004;28;20213;-66
2023/09/09 04:21:59;;;;;;;10.68;9.77;;;21.60;99.90;;;;;;5082036;28;20772;-65
2023/09/09 04:24:26;;;;;;;10.18;9.35;;;21.60;99.90;;;;;;5084216;28;20633;-65
2023/09/09 04:26:54;;;;;;;11.07;10.10;;;21.50;99.90;;;;;;5074420;28;20302;-65
2023/09/09 04:29:21;;;;;;;10.70;9.80;;;21.50;99.90;;;;;;5063874;28;20207;-65
2023/09/09 04:31:50;;;;;;;10.70;9.85;;;21.50;99.90;;;;;;5064197;28;20596;-65
2023/09/09 04:34:17;;;;;;;11.07;9.93;;;21.40;99.90;;;;;;5077982;28;20238;-65
2023/09/09 04:36:45;;;;;;;11.27;10.27;;;21.40;99.90;;;;;;5066489;28;20199;-64
2023/09/09 04:39:14;;;;;;;11.27;10.32;;;21.40;99.90;;;;;;5081432;28;20203;-65
2023/09/09 04:41:41;;;;;;;11.40;10.23;;;21.40;99.90;;;;;;5085104;28;20214;-65
2023/09/09 04:44:09;;;;;;;15.32;10.90;;;21.40;99.90;;;;;;5074836;28;20298;-65
2023/09/09 04:46:36;;;;;;;10.88;9.90;;;21.40;99.90;;;;;;5074098;28;20203;-65
2023/09/09 04:49:04;;;;;;;11.43;9.68;;;21.30;99.90;;;;;;5084382;28;20321;-64
2023/09/09 04:51:32;;;;;;;11.43;10.40;;;21.30;99.90;;;;;;5084030;28;20233;-64
2023/09/09 04:53:58;;;;;;;10.90;9.93;;;21.30;99.90;;;;;;5083576;28;20237;-64
2023/09/09 04:56:25;;;;;;;10.43;9.50;;;21.30;99.90;;;;;;5083215;28;20646;-65
2023/09/09 04:58:52;;;;;;;11.10;10.10;;;21.30;99.90;;;;;;5083640;28;20737;-66
2023/09/09 05:01:19;;;;;;;11.63;10.57;;;21.20;99.90;;;;;;5083257;28;20331;-65
2023/09/09 05:03:46;;;;;;;11.20;9.80;;;21.30;99.90;;;;;;5083702;28;20677;-65
2023/09/09 05:06:14;;;;;;;11.35;10.07;;;21.30;99.90;;;;;;5088219;28;20289;-66
2023/09/09 05:08:41;;;;;;;10.80;9.90;;;21.20;99.90;;;;;;5081763;28;20278;-65
2023/09/09 05:11:08;;;;;;;11.38;10.20;;;21.20;99.90;;;;;;5066999;28;20298;-65
2023/09/09 05:13:35;;;;;;;10.77;9.88;;;21.20;99.90;;;;;;5066947;28;20955;-66
2023/09/09 05:16:02;;;;;;;10.98;9.60;;;21.20;99.90;;;;;;5067284;28;20298;-66
2023/09/09 05:18:29;;;;;;;11.00;10.13;;;21.20;99.90;;;;;;5069144;28;20239;-66
2023/09/09 05:20:56;;;;;;;10.43;9.43;;;21.20;99.90;;;;;;5067401;28;20207;-66
2023/09/09 05:23:24;;;;;;;10.85;9.88;;;21.20;99.90;;;;;;5067185;28;20206;-65
2023/09/09 05:25:51;;;;;;;10.75;9.80;;;21.20;99.90;;;;;;5073503;28;20243;-66
2023/09/09 05:28:18;;;;;;;10.38;9.48;;;21.20;99.90;;;;;;5067038;28;20196;-66
2023/09/09 05:30:45;;;;;;;10.75;9.93;;;21.20;99.90;;;;;;5067281;28;20290;-65
2023/09/09 05:33:12;;;;;;;10.38;9.38;;;21.20;99.90;;;;;;5066745;28;20727;-66
2023/09/09 05:35:39;;;;;;;11.63;10.55;;;21.20;99.90;;;;;;5066836;28;20704;-67
2023/09/09 05:38:06;;;;;;;9.95;9.15;;;21.20;99.90;;;;;;5066619;28;20330;-65
2023/09/09 05:40:34;;;;;;;11.10;10.20;;;21.20;99.90;;;;;;5077897;28;20293;-65
2023/09/09 05:43:01;;;;;;;10.15;9.25;;;21.20;99.90;;;;;;5087103;28;20217;-65
2023/09/09 05:45:28;;;;;;;11.20;9.57;;;21.20;99.90;;;;;;5086226;28;20585;-65
2023/09/09 05:47:55;;;;;;;10.50;9.60;;;21.20;99.90;;;;;;5086985;28;20219;-65
2023/09/09 05:50:22;;;;;;;10.90;9.90;;;21.20;99.90;;;;;;5079114;28;20562;-66
2023/09/09 05:52:49;;;;;;;10.32;9.00;;;21.20;99.90;;;;;;5066414;28;20319;-66
2023/09/09 05:55:16;;;;;;;10.27;9.48;;;21.20;99.90;;;;;;5067000;28;20593;-66
2023/09/09 05:57:44;;;;;;;11.70;9.32;;;21.20;99.90;;;;;;5066692;28;20895;-66
2023/09/09 06:00:11;;;;;;;10.25;9.40;;;21.20;99.90;;;;;;5066625;28;20207;-66
2023/09/09 06:02:38;;;;;;;10.55;9.60;;;21.20;99.90;;;;;;5066561;28;20641;-66
2023/09/09 06:05:06;;;;;;;10.77;9.88;;;21.30;99.90;;;;;;5066164;28;20302;-66
2023/09/09 06:07:33;;;;;;;10.13;9.32;;;21.30;99.90;;;;;;5069159;28;20203;-66
2023/09/09 06:10:00;;;;;;;10.27;9.48;;;21.20;99.90;;;;;;5102332;28;20201;-66
2023/09/09 06:12:27;;;;;;;10.45;9.45;;;21.30;99.90;;;;;;5106435;28;20708;-66
2023/09/09 06:14:55;;;;;;;10.07;8.93;;;21.30;99.90;;;;;;5088911;28;20808;-66
2023/09/09 06:17:22;;;;;;;11.80;9.70;;;21.30;99.90;;;;;;5080617;28;20214;-66
2023/09/09 06:19:49;;;;;;;10.60;9.60;;;21.40;99.90;;;;;;5069361;28;20203;-66
2023/09/09 06:22:16;;;;;;;11.30;8.60;;;21.40;99.90;;;;;;5086293;28;20732;-65
2023/09/09 06:24:43;;;;;;;10.00;9.07;;;21.40;99.90;;;;;;5086194;28;20826;-65
2023/09/09 06:27:10;;;;;;;10.00;9.10;;;21.40;99.90;;;;;;5086710;28;20275;-65
2023/09/09 06:29:37;;;;;;;9.63;8.82;;;21.40;99.90;;;;;;5086457;28;20302;-65
2023/09/09 06:32:09;;;;;;;9.60;8.80;;;21.40;99.90;;;;;;5086295;28;20233;-65
2023/09/09 06:34:36;;;;;;;10.20;9.30;;;21.40;99.90;;;;;;5085095;28;20230;-65
2023/09/09 06:37:03;;;;;;;10.20;9.30;;;21.40;99.90;;;;;;5098897;28;20289;-65
2023/09/09 06:39:30;;;;;;;9.82;9.13;;;21.50;99.90;;;;;;5094997;28;20218;-65
2023/09/09 06:41:57;;;;;;;9.68;8.80;;;21.50;99.90;;;;;;5086301;28;20297;-65
2023/09/09 06:44:24;;;;;;;11.20;9.45;;;21.50;99.90;;;;;;5086243;28;20301;-65
2023/09/09 06:46:50;;;;;;;9.80;8.82;;;21.50;99.90;;;;;;5086758;28;20230;-66
2023/09/09 06:49:19;;;;;;;11.13;9.63;;;21.50;99.90;;;;;;5086706;28;20290;-66
2023/09/09 06:51:46;;;;;;;10.98;9.02;;;21.50;99.90;;;;;;5086264;28;20333;-66
2023/09/09 06:54:12;;;;;;;9.60;8.60;;;21.50;99.90;;;;;;5076558;28;20701;-66
2023/09/09 06:56:39;;;;;;;10.27;9.02;;;21.60;99.90;;;;;;5065388;28;20199;-66
2023/09/09 06:59:07;;;;;;;9.77;8.80;;;21.60;99.90;;;;;;5067218;28;20291;-66
2023/09/09 07:01:35;;;;;;;9.88;8.88;;;21.70;99.90;;;;;;5085456;28;20262;-65
2023/09/09 07:04:03;;;;;;;9.85;8.70;;;21.70;99.90;;;;;;5077547;28;20610;-65
2023/09/09 07:06:31;;;;;;;9.63;8.55;;;21.80;99.90;;;;;;5065450;28;20637;-65
2023/09/09 07:08:58;;;;;;;10.43;8.07;;;21.80;99.90;;;;;;5078766;28;20229;-65
2023/09/09 07:11:25;;;;;;;8.50;7.78;;;21.90;99.90;;;;;;5068781;28;20269;-66
2023/09/09 07:13:52;;;;;;;10.13;7.60;;;21.90;99.90;;;;;;5064684;28;20653;-65
2023/09/09 07:16:19;;;;;;;8.27;7.68;;;22.10;99.90;;;;;;5072050;28;20658;-65
2023/09/09 07:18:46;;;;;;;8.45;7.80;;;22.10;99.90;;;;;;5083240;28;20298;-65
2023/09/09 07:21:13;;;;;;;9.52;7.55;;;22.20;99.90;;;;;;5085422;28;20215;-65
2023/09/09 07:23:41;;;;;;;8.50;7.63;;;22.30;99.90;;;;;;5084280;28;21050;-66
2023/09/09 07:26:08;;;;;;;7.88;7.28;;;22.30;99.90;;;;;;5066389;28;20298;-65
2023/09/09 07:28:34;;;;;;;8.07;7.28;;;22.40;99.90;;;;;;5075082;28;20298;-65
2023/09/09 07:31:03;;;;;;;7.47;6.85;;;22.50;99.90;;;;;;5084357;28;20410;-65
2023/09/09 07:33:30;;;;;;;7.60;6.90;;;22.60;99.90;;;;;;5070375;28;20227;-65
2023/09/09 07:35:57;;;;;;;8.15;6.70;;;22.60;99.90;;;;;;5064518;28;20218;-66
2023/09/09 07:38:24;;;;;;;7.47;6.78;;;22.70;99.90;;;;;;5069339;28;20211;-66
2023/09/09 07:40:57;;;;;;;7.78;6.70;;;22.80;99.90;;;;;;5091086;28;20198;-66
2023/09/09 07:43:24;;;;;;;6.95;6.47;;;22.90;99.90;;;;;;5084692;28;20195;-70
2023/09/09 07:45:51;;;;;;;6.95;6.35;;;22.90;99.90;;;;;;5084612;28;20215;-65
2023/09/09 07:48:18;;;;;;;7.63;7.03;;;23.00;99.90;;;;;;5084608;28;20242;-65
2023/09/09 07:50:51;;;;;;;8.93;7.10;;;23.10;99.90;;;;;;5084236;28;20290;-65
2023/09/09 07:53:18;;;;;;;19.90;17.83;;;23.20;99.90;;;;;;5065249;28;20219;-65
2023/09/09 07:55:48;;;;;;;6.70;6.20;;;23.20;99.90;;;;;;5063536;28;20298;-65
2023/09/09 07:58:17;;;;;;;8.18;6.22;;;23.20;99.90;;;;;;5063163;28;20673;-65
2023/09/09 08:00:44;;;;;;;7.65;6.93;;;23.30;99.90;;;;;;5063379;28;20699;-65
2023/09/09 08:03:11;;;;;;;7.10;6.45;;;23.30;99.90;;;;;;5063370;28;20207;-65
2023/09/09 08:05:39;;;;;;;7.15;6.55;;;23.30;99.90;;;;;;5065707;28;20298;-65
2023/09/09 08:08:06;;;;;;;7.10;6.45;;;23.40;99.90;;;;;;5083343;28;20213;-65
2023/09/09 08:10:33;;;;;;;7.18;6.60;;;23.40;99.90;;;;;;5063652;28;20208;-65
2023/09/09 08:13:01;;;;;;;7.28;6.55;;;23.50;99.90;;;;;;5062787;28;20325;-65
2023/09/09 08:15:29;;;;;;;7.70;6.43;;;23.60;99.90;;;;;;5069278;28;20209;-65
2023/09/09 08:17:56;;;;;;;6.95;6.13;;;23.60;99.90;;;;;;5063347;28;20213;-65
2023/09/09 08:20:23;;;;;;;6.78;6.10;;;23.70;99.90;;;;;;5063305;28;20208;-65
2023/09/09 08:22:50;;;;;;;8.80;6.80;;;23.80;99.90;;;;;;5065547;28;20569;-65
2023/09/09 08:25:17;;;;;;;6.65;6.05;;;23.80;99.90;;;;;;5074079;28;20215;-66
2023/09/09 08:27:44;;;;;;;8.02;5.85;;;23.80;99.90;;;;;;5066465;28;20666;-66
2023/09/09 08:30:11;;;;;;;6.57;5.93;;;23.80;99.90;;;;;;5081139;28;20211;-66
2023/09/09 08:32:41;;;;;;;7.00;6.40;;;23.90;99.90;;;;;;5081437;28;21053;-66
2023/09/09 08:35:08;;;;;;;7.55;6.85;;;24.00;99.90;;;;;;5083269;28;20217;-66
2023/09/09 08:37:34;;;;;;;8.32;7.53;;;24.00;99.90;;;;;;5064281;28;20239;-66
2023/09/09 08:40:02;;;;;;;12.63;11.40;;;24.10;99.90;;;;;;5099946;28;20292;-66
2023/09/09 08:42:40;;;;;;;17.15;7.38;;;24.20;99.90;;;;;;5096987;28;20256;-67
2023/09/09 08:45:20;;;;;;;6.35;5.85;;;24.30;99.90;;;;;;5087942;28;20957;-66
2023/09/09 08:47:51;;;;;;;6.68;6.13;;;24.40;99.90;;;;;;5088278;28;20289;-66
2023/09/09 08:50:20;;;;;;;7.13;6.50;;;24.40;99.90;;;;;;5088014;28;20285;-66
2023/09/09 08:52:49;;;;;;;7.07;6.25;;;24.50;99.90;;;;;;5076592;28;20253;-66
2023/09/09 08:55:17;;;;;;;7.10;6.47;;;24.60;99.90;;;;;;5067242;28;20238;-66
2023/09/09 08:57:44;;;;;;;6.35;5.88;;;24.60;99.90;;;;;;5067616;28;20750;-66
2023/09/09 09:00:13;;;;;;;6.50;5.88;;;24.70;99.90;;;;;;5067038;28;20263;-66
2023/09/09 09:02:41;;;;;;;8.73;5.72;;;24.80;99.90;;;;;;5069567;28;20854;-66
2023/09/09 09:05:11;;;;;;;10.00;6.07;;;24.80;99.90;;;;;;5069213;28;20441;-66
2023/09/09 09:07:39;;;;;;;7.57;6.13;;;24.90;99.90;;;;;;5076179;28;20616;-67
2023/09/09 09:10:07;;;;;;;6.93;5.97;;;25.00;99.90;;;;;;5078038;28;20261;-67
2023/09/09 09:12:38;;;;;;;7.13;6.20;;;25.10;99.90;;;;;;5065801;28;20237;-67
2023/09/09 09:15:05;;;;;;;6.70;5.78;;;25.20;99.90;;;;;;5066446;28;20278;-67
2023/09/09 09:17:37;;;;;;;6.30;5.80;;;25.20;99.90;;;;;;5066490;28;20200;-64
2023/09/09 09:20:07;;;;;;;6.22;5.80;;;25.30;99.90;;;;;;5072527;28;20240;-64
2023/09/09 09:22:37;;;;;;;6.78;6.20;;;25.40;99.90;;;;;;5082166;28;20268;-64
2023/09/09 09:25:08;;;;;;;13.80;12.45;;;25.50;99.90;;;;;;5086282;28;20723;-64
2023/09/09 09:27:41;;;;;;;9.38;6.05;;;25.50;99.90;;;;;;5086843;28;20276;-64
2023/09/09 09:30:10;;;;;;;5.88;5.45;;;25.60;99.90;;;;;;5086842;28;20536;-65
2023/09/09 09:32:41;;;;;;;6.20;5.57;;;25.70;99.90;;;;;;5086096;28;20788;-66
2023/09/09 09:35:23;;;;;;;6.05;5.22;;;25.80;99.90;;;;;;5086146;28;20676;-65
2023/09/09 09:37:53;;;;;;;5.57;5.20;;;25.80;99.90;;;;;;5066073;28;20279;-65
2023/09/09 09:40:20;;;;;;;5.43;5.03;;;25.80;99.90;;;;;;5077895;28;20682;-65
2023/09/09 09:42:47;;;;;;;5.75;5.35;;;25.90;99.90;;;;;;5065753;28;20306;-65
2023/09/09 09:45:15;;;;;;;6.13;5.63;;;26.00;99.90;;;;;;5084075;28;20325;-65
2023/09/09 09:47:46;;;;;;;10.82;9.70;;;26.10;99.90;;;;;;5078890;28;20577;-66
2023/09/09 09:50:28;;;;;;;15.90;12.15;;;26.10;99.90;;;;;;5085036;28;20306;-66
2023/09/09 09:53:01;;;;;;;6.72;5.60;;;26.20;99.90;;;;;;5086018;28;20343;-66
2023/09/09 09:55:30;;;;;;;6.20;5.60;;;26.30;99.90;;;;;;5085046;28;20877;-66
2023/09/09 09:57:59;;;;;;;5.85;5.38;;;26.30;99.90;;;;;;5085571;28;20217;-66
2023/09/09 10:00:26;;;;;;;8.68;6.32;;;26.40;99.90;;;;;;5085008;28;20206;-66
2023/09/09 10:02:55;;;;;;;6.63;5.57;;;26.40;99.90;;;;;;5085881;28;20213;-66
2023/09/09 10:05:24;;;;;;;7.13;6.30;;;26.50;99.90;;;;;;5085356;28;20213;-66
2023/09/09 10:07:53;;;;;;;8.73;6.03;;;26.60;99.90;;;;;;5073262;28;20916;-66
2023/09/09 10:10:24;;;;;;;6.53;6.00;;;26.60;99.90;;;;;;5080181;28;20290;-66
2023/09/09 10:12:55;;;;;;;6.10;5.70;;;26.70;99.80;;;;;;5085023;28;20692;-66
2023/09/09 10:15:22;;;;;;;6.57;5.55;;;26.80;98.70;;;;;;5085195;28;20756;-66
2023/09/09 10:17:51;;;;;;;5.95;5.43;;;26.90;99.00;;;;;;5085556;28;20207;-67
2023/09/09 10:20:19;;;;;;;7.00;5.45;;;26.90;98.70;;;;;;5076294;28;20203;-67
2023/09/09 10:22:48;;;;;;;6.45;5.78;;;27.00;99.20;;;;;;5083394;28;20736;-68
2023/09/09 10:25:15;;;;;;;7.50;5.43;;;27.10;99.50;;;;;;5085901;28;20202;-69
2023/09/09 10:27:44;;;;;;;5.20;4.70;;;27.10;98.80;;;;;;5085373;28;20207;-67
2023/09/09 10:30:11;;;;;;;8.23;5.25;;;27.20;98.00;;;;;;5085501;28;20226;-67
2023/09/09 10:32:39;;;;;;;5.90;5.40;;;27.30;98.60;;;;;;5071961;28;20689;-67
2023/09/09 10:35:07;;;;;;;5.78;5.35;;;27.30;97.90;;;;;;5064359;28;20740;-67
2023/09/09 10:37:36;;;;;;;6.65;6.05;;;27.40;98.00;;;;;;5064393;28;20286;-67
2023/09/09 10:40:05;;;;;;;6.00;5.28;;;27.40;97.90;;;;;;5096989;28;20233;-66
2023/09/09 10:42:35;;;;;;;5.75;5.22;;;27.40;96.50;;;;;;5083052;28;20206;-66
2023/09/09 10:45:27;;;;;;;5.70;5.30;;;27.50;97.30;;;;;;5074049;28;20256;-67
2023/09/09 10:47:57;;;;;;;5.00;4.65;;;27.60;97.40;;;;;;5084950;28;20276;-67
2023/09/09 10:50:24;;;;;;;6.10;4.57;;;27.70;96.10;;;;;;5085070;28;20195;-67
2023/09/09 10:53:12;;;;;;;5.38;4.97;;;27.80;95.90;;;;;;5083983;28;20628;-67
2023/09/09 10:55:39;;;;;;;5.22;4.72;;;27.80;96.50;;;;;;5073006;28;20689;-66
2023/09/09 10:58:07;;;;;;;6.18;4.25;;;27.90;94.80;;;;;;5064526;28;20214;-67
2023/09/09 11:00:40;;;;;;;4.82;4.28;;;28.00;94.30;;;;;;5084518;28;20349;-67
2023/09/09 11:03:11;;;;;;;4.45;4.07;;;28.10;94.00;;;;;;5091728;28;20206;-67
2023/09/09 11:06:00;;;;;;;4.50;4.15;;;28.20;94.10;;;;;;5076117;28;20267;-66
2023/09/09 11:08:35;;;;;;;4.80;4.45;;;28.20;93.30;;;;;;5065002;28;20295;-67
2023/09/09 11:11:11;;;;;;;4.95;4.55;;;28.20;93.90;;;;;;5064555;28;20205;-67
2023/09/09 11:13:39;;;;;;;10.55;5.70;;;28.30;94.60;;;;;;5064343;28;20226;-67
2023/09/09 11:16:08;;;;;;;4.95;4.65;;;28.30;94.30;;;;;;5064503;28;20230;-67
2023/09/09 11:18:35;;;;;;;5.50;5.00;;;28.40;93.80;;;;;;5078371;28;20204;-67
2023/09/09 11:21:03;;;;;;;5.18;4.72;;;28.40;94.20;;;;;;5070506;28;20203;-67
2023/09/09 11:23:31;;;;;;;4.70;4.30;;;28.30;95.20;;;;;;5064657;28;20313;-67
2023/09/09 11:26:00;;;;;;;4.60;4.20;;;28.30;94.80;;;;;;5064606;28;20986;-67
2023/09/09 11:28:27;;;;;;;5.15;4.75;;;28.40;93.50;;;;;;5064595;28;20286;-67
2023/09/09 11:30:54;;;;;;;5.18;4.88;;;28.40;93.70;;;;;;5081370;28;20231;-67
2023/09/09 11:33:24;;;;;;;4.88;4.57;;;28.50;93.70;;;;;;5077196;28;20223;-67
2023/09/09 11:35:51;;;;;;;6.00;4.72;;;28.60;93.70;;;;;;5070552;28;20306;-67
2023/09/09 11:38:18;;;;;;;4.55;4.15;;;28.70;93.30;;;;;;5067369;28;20306;-67
2023/09/09 11:40:46;;;;;;;4.90;4.50;;;28.70;93.90;;;;;;5083899;28;20627;-67
2023/09/09 11:43:15;;;;;;;4.60;4.20;;;28.80;93.10;;;;;;5084951;28;20202;-66
2023/09/09 11:45:42;;;;;;;4.28;3.97;;;28.80;93.30;;;;;;5073729;28;20300;-67
2023/09/09 11:48:13;;;;;;;4.47;4.07;;;28.80;91.90;;;;;;5064929;28;20243;-67
2023/09/09 11:50:43;;;;;;;3.75;3.55;;;28.90;91.90;;;;;;5066336;28;20188;-67
2023/09/09 11:53:11;;;;;;;4.00;3.80;;;28.90;91.50;;;;;;5064971;28;20298;-67
2023/09/09 11:55:39;;;;;;;4.03;3.83;;;28.90;91.60;;;;;;5065186;28;20210;-67
2023/09/09 11:58:06;;;;;;;4.65;4.35;;;28.90;92.60;;;;;;5065161;28;20211;-68
2023/09/09 12:00:33;;;;;;;4.40;4.10;;;28.90;92.50;;;;;;5071203;28;20658;-67
2023/09/09 12:03:00;;;;;;;4.90;4.10;;;29.00;92.90;;;;;;5065212;28;20194;-67
2023/09/09 12:05:30;;;;;;;4.30;4.00;;;29.00;92.90;;;;;;5065051;28;20227;-67
2023/09/09 12:07:59;;;;;;;4.18;3.78;;;29.00;93.50;;;;;;5064511;28;20192;-67
2023/09/09 12:10:28;;;;;;;4.05;3.75;;;29.00;93.30;;;;;;5064926;28;20231;-68
2023/09/09 12:12:56;;;;;;;4.20;3.90;;;29.00;92.70;;;;;;5064402;28;20207;-67
2023/09/09 12:15:23;;;;;;;4.45;4.15;;;29.00;93.70;;;;;;5075326;28;20237;-67
2023/09/09 12:17:50;;;;;;;3.58;3.30;;;29.10;92.00;;;;;;5068731;28;20211;-67
2023/09/09 12:20:17;;;;;;;3.58;3.30;;;29.10;91.30;;;;;;5068931;28;20207;-67
2023/09/09 12:22:47;;;;;;;3.70;3.40;;;29.10;90.80;;;;;;5086450;28;20230;-67
2023/09/09 12:25:31;;;;;;;4.10;3.80;;;29.10;90.80;;;;;;5088898;28;20230;-67
2023/09/09 12:27:57;;;;;;;5.80;4.03;;;29.20;90.70;;;;;;5086156;28;20207;-67
2023/09/09 12:30:31;;;;;;;5.45;3.70;;;29.30;89.90;;;;;;5088963;28;20302;-67
2023/09/09 12:33:04;;;;;;;4.32;4.00;;;29.30;87.50;;;;;;5068404;28;20207;-68
2023/09/09 12:35:34;;;;;;;3.97;3.67;;;29.30;88.30;;;;;;5068519;28;21039;-66
2023/09/09 12:38:01;;;;;;;4.20;3.90;;;29.30;89.00;;;;;;5068393;28;20298;-66
2023/09/09 12:40:28;;;;;;;4.38;4.03;;;29.30;90.00;;;;;;5068937;28;20298;-66
2023/09/09 12:42:57;;;;;;;5.15;4.10;;;29.30;88.50;;;;;;5068368;28;20242;-67
2023/09/09 12:45:25;;;;;;;4.13;3.60;;;29.40;88.30;;;;;;5068587;28;20564;-67
2023/09/09 12:47:52;;;;;;;4.10;3.80;;;29.40;88.90;;;;;;5076486;28;20207;-67